Time;durP1;ratioP1;P1;durP2;ratioP2;P2;SDS_P1;SDS_P2;PMS_P1;PMS_P2;Temp;Humidity;BMP_temperature;BMP_pressure;BME280_temperature;BME280_humidity;BME280_pressure;Samples;Min_cycle;Max_cycle;Signal;HPM_P1;HPM_P2
2020/12/08 00:01:54;;;;;;;16.77;11.43;;;;;;;;;;5034968;28;20203;-79
2020/12/08 00:04:19;;;;;;;23.77;14.67;;;;;;;;;;5034467;28;20196;-79
2020/12/08 00:06:44;;;;;;;17.67;10.90;;;;;;;;;;5034713;28;20685;-79
2020/12/08 00:09:10;;;;;;;16.57;10.93;;;;;;;;;;5033892;28;20168;-80
2020/12/08 00:11:35;;;;;;;17.10;9.90;;;;;;;;;;5032945;28;20259;-79
2020/12/08 00:14:00;;;;;;;19.17;11.37;;;;;;;;;;5033275;28;20165;-78
2020/12/08 00:16:25;;;;;;;19.57;13.53;;;;;;;;;;5034412;28;20592;-79
2020/12/08 00:18:51;;;;;;;16.00;11.80;;;;;;;;;;5032461;28;20172;-79
2020/12/08 00:21:17;;;;;;;14.93;10.43;;;;;;;;;;5032159;28;20259;-80
2020/12/08 00:23:42;;;;;;;16.33;10.40;;;;;;;;;;5032299;28;20623;-79
2020/12/08 00:26:07;;;;;;;17.37;11.97;;;;;;;;;;5032346;28;20176;-79
2020/12/08 00:28:33;;;;;;;16.20;10.33;;;;;;;;;;5031893;28;20192;-79
2020/12/08 00:30:58;;;;;;;19.83;12.00;;;;;;;;;;5032206;28;20204;-79
2020/12/08 00:33:24;;;;;;;16.20;11.60;;;;;;;;;;5032382;28;20259;-79
2020/12/08 00:35:49;;;;;;;16.30;11.80;;;;;;;;;;5032028;28;20187;-79
2020/12/08 00:38:14;;;;;;;19.80;12.80;;;;;;;;;;5032814;28;20245;-78
2020/12/08 00:40:40;;;;;;;20.17;12.77;;;;;;;;;;5034167;28;20172;-78
2020/12/08 00:43:06;;;;;;;16.53;11.70;;;;;;;;;;5034082;28;20204;-78
2020/12/08 00:45:31;;;;;;;20.33;12.60;;;;;;;;;;5033886;28;20614;-78
2020/12/08 00:47:56;;;;;;;15.90;11.90;;;;;;;;;;5032763;28;20184;-78
2020/12/08 00:50:21;;;;;;;13.57;9.63;;;;;;;;;;5034116;28;20169;-78
2020/12/08 00:52:47;;;;;;;18.43;12.37;;;;;;;;;;5034294;28;20173;-79
2020/12/08 00:55:12;;;;;;;17.03;11.53;;;;;;;;;;5033723;28;20595;-78
2020/12/08 00:57:37;;;;;;;17.53;11.53;;;;;;;;;;5033665;28;20228;-78
2020/12/08 01:00:05;;;;;;;17.13;11.63;;;;;;;;;;5033921;28;20169;-78
2020/12/08 01:02:30;;;;;;;20.83;13.30;;;;;;;;;;5033613;28;20580;-78
2020/12/08 01:04:55;;;;;;;18.93;12.90;;;;;;;;;;5033889;28;20187;-78
2020/12/08 01:07:20;;;;;;;19.40;13.47;;;;;;;;;;5033716;28;20180;-78
2020/12/08 01:09:46;;;;;;;17.17;10.97;;;;;;;;;;5034266;28;20168;-78
2020/12/08 01:12:11;;;;;;;15.73;10.97;;;;;;;;;;5034582;28;20195;-78
2020/12/08 01:14:36;;;;;;;15.43;11.37;;;;;;;;;;5033936;28;20181;-78
2020/12/08 01:17:03;;;;;;;19.10;12.50;;;;;;;;;;5033622;28;20176;-78
2020/12/08 01:19:28;;;;;;;18.00;12.47;;;;;;;;;;5033633;28;20634;-78
2020/12/08 01:21:54;;;;;;;19.47;11.47;;;;;;;;;;5033513;28;20286;-79
2020/12/08 01:24:19;;;;;;;20.87;12.20;;;;;;;;;;5033729;28;20623;-78
2020/12/08 01:26:45;;;;;;;18.10;13.00;;;;;;;;;;5033891;28;20243;-79
2020/12/08 01:29:10;;;;;;;14.53;10.57;;;;;;;;;;5033627;28;20603;-79
2020/12/08 01:31:36;;;;;;;16.30;11.00;;;;;;;;;;5033344;28;20605;-79
2020/12/08 01:34:01;;;;;;;17.23;11.73;;;;;;;;;;5033608;28;20261;-79
2020/12/08 01:36:26;;;;;;;18.53;11.87;;;;;;;;;;5033912;28;20165;-79
2020/12/08 01:38:52;;;;;;;16.60;12.20;;;;;;;;;;5033821;28;20172;-79
2020/12/08 01:41:17;;;;;;;20.53;12.80;;;;;;;;;;5034124;28;20223;-79
2020/12/08 01:43:49;;;;;;;17.83;12.80;;;;;;;;;;5033566;28;20201;-78
2020/12/08 01:46:16;;;;;;;17.70;10.70;;;;;;;;;;5033552;28;20173;-78
2020/12/08 01:48:42;;;;;;;16.20;11.77;;;;;;;;;;5033917;28;20251;-78
2020/12/08 01:51:08;;;;;;;16.83;10.80;;;;;;;;;;5033498;28;20207;-78
2020/12/08 01:53:33;;;;;;;20.57;13.33;;;;;;;;;;5033712;28;20187;-78
2020/12/08 01:55:58;;;;;;;17.87;12.13;;;;;;;;;;5033166;28;20328;-78
2020/12/08 01:58:24;;;;;;;20.30;12.97;;;;;;;;;;5033445;28;20683;-79
2020/12/08 02:00:52;;;;;;;20.17;13.17;;;;;;;;;;5033117;28;20256;-79
2020/12/08 02:03:17;;;;;;;21.33;13.17;;;;;;;;;;5032912;28;20204;-79
2020/12/08 02:05:43;;;;;;;17.73;11.90;;;;;;;;;;5033048;28;20654;-78
2020/12/08 02:08:08;;;;;;;20.10;12.90;;;;;;;;;;5037529;28;20169;-79
2020/12/08 02:10:34;;;;;;;20.33;11.57;;;;;;;;;;5036905;28;20184;-79
2020/12/08 02:12:59;;;;;;;17.47;11.70;;;;;;;;;;5036917;28;20179;-79
2020/12/08 02:15:28;;;;;;;16.70;12.17;;;;;;;;;;5036607;28;20167;-79
2020/12/08 02:17:53;;;;;;;17.13;10.93;;;;;;;;;;5037144;28;20638;-79
2020/12/08 02:20:18;;;;;;;18.23;12.23;;;;;;;;;;5036858;28;20259;-79
2020/12/08 02:22:44;;;;;;;17.00;11.40;;;;;;;;;;5036929;28;20207;-79
2020/12/08 02:25:09;;;;;;;18.17;12.10;;;;;;;;;;5036704;28;20222;-79
2020/12/08 02:27:35;;;;;;;16.00;11.77;;;;;;;;;;5036262;28;20192;-79
2020/12/08 02:30:00;;;;;;;16.20;11.60;;;;;;;;;;5036552;28;20537;-79
2020/12/08 02:32:25;;;;;;;15.27;10.77;;;;;;;;;;5036334;28;20519;-79
2020/12/08 02:34:50;;;;;;;27.47;17.23;;;;;;;;;;5036558;28;20590;-79
2020/12/08 02:37:16;;;;;;;19.57;10.93;;;;;;;;;;5036455;28;20168;-79
2020/12/08 02:39:41;;;;;;;16.73;10.90;;;;;;;;;;5036424;28;20171;-79
2020/12/08 02:42:06;;;;;;;18.17;11.67;;;;;;;;;;5036554;28;20205;-79
2020/12/08 02:44:32;;;;;;;19.37;12.33;;;;;;;;;;5036094;28;20203;-79
2020/12/08 02:46:57;;;;;;;16.17;11.10;;;;;;;;;;5036594;28;20203;-79
2020/12/08 02:49:22;;;;;;;17.97;11.70;;;;;;;;;;5036268;28;20176;-79
2020/12/08 02:51:47;;;;;;;17.73;11.10;;;;;;;;;;5036233;28;20322;-79
2020/12/08 02:54:13;;;;;;;20.07;11.47;;;;;;;;;;5035954;28;20187;-79
2020/12/08 02:56:38;;;;;;;17.57;12.43;;;;;;;;;;5036470;28;20168;-79
2020/12/08 02:59:03;;;;;;;17.77;10.67;;;;;;;;;;5036702;28;20220;-79
2020/12/08 03:01:29;;;;;;;15.53;9.80;;;;;;;;;;5036326;28;20176;-79
2020/12/08 03:03:54;;;;;;;19.60;13.00;;;;;;;;;;5035994;28;20303;-79
2020/12/08 03:06:19;;;;;;;16.77;12.00;;;;;;;;;;5035809;28;20173;-79
2020/12/08 03:08:44;;;;;;;19.43;12.00;;;;;;;;;;5035973;28;20267;-79
2020/12/08 03:11:14;;;;;;;26.23;16.97;;;;;;;;;;5035574;28;20176;-79
2020/12/08 03:13:41;;;;;;;18.70;11.70;;;;;;;;;;5035829;28;20608;-79
2020/12/08 03:16:06;;;;;;;15.70;11.00;;;;;;;;;;5035437;28;20252;-79
2020/12/08 03:18:31;;;;;;;16.70;10.87;;;;;;;;;;5035382;28;20203;-79
2020/12/08 03:20:59;;;;;;;16.43;10.40;;;;;;;;;;5035642;28;20175;-79
2020/12/08 03:23:25;;;;;;;22.47;13.87;;;;;;;;;;5035340;28;20551;-79
2020/12/08 03:25:50;;;;;;;15.03;10.83;;;;;;;;;;5035312;28;20172;-79
2020/12/08 03:28:15;;;;;;;14.83;10.30;;;;;;;;;;5035582;28;20189;-79
2020/12/08 03:30:40;;;;;;;17.37;11.80;;;;;;;;;;5035239;28;20172;-79
2020/12/08 03:33:06;;;;;;;14.43;9.77;;;;;;;;;;5035211;28;20177;-79
2020/12/08 03:35:31;;;;;;;15.23;9.93;;;;;;;;;;5035617;28;20182;-79
2020/12/08 03:37:56;;;;;;;28.60;18.30;;;;;;;;;;5035288;28;20586;-79
2020/12/08 03:40:21;;;;;;;20.70;13.57;;;;;;;;;;5035267;28;20173;-79
2020/12/08 03:42:47;;;;;;;16.93;11.17;;;;;;;;;;5035171;28;20575;-79
2020/12/08 03:45:12;;;;;;;14.20;9.50;;;;;;;;;;5035225;28;20204;-78
2020/12/08 03:47:37;;;;;;;15.33;10.33;;;;;;;;;;5035216;28;20628;-78
2020/12/08 03:50:03;;;;;;;14.17;9.40;;;;;;;;;;5035356;28;20173;-79
2020/12/08 03:52:28;;;;;;;13.30;9.57;;;;;;;;;;5034983;28;20202;-79
2020/12/08 03:54:53;;;;;;;18.47;11.00;;;;;;;;;;5034757;28;20198;-79
2020/12/08 03:57:18;;;;;;;17.13;11.40;;;;;;;;;;5034759;28;20223;-79
2020/12/08 03:59:44;;;;;;;13.70;9.50;;;;;;;;;;5035271;28;20165;-78
2020/12/08 04:02:09;;;;;;;11.37;8.33;;;;;;;;;;5035999;28;20198;-78
2020/12/08 04:04:34;;;;;;;14.17;9.73;;;;;;;;;;5035442;28;20167;-78
2020/12/08 04:07:00;;;;;;;17.70;12.97;;;;;;;;;;5035464;28;20555;-78
2020/12/08 04:09:25;;;;;;;12.20;9.60;;;;;;;;;;5035548;28;20168;-78
2020/12/08 04:11:50;;;;;;;13.53;9.97;;;;;;;;;;5035114;28;20172;-78
2020/12/08 04:14:15;;;;;;;14.30;10.13;;;;;;;;;;5034644;28;20164;-78
2020/12/08 04:16:43;;;;;;;17.13;11.77;;;;;;;;;;5034650;28;20253;-78
2020/12/08 04:19:08;;;;;;;16.27;11.07;;;;;;;;;;5034564;28;20172;-79
2020/12/08 04:21:34;;;;;;;15.37;12.97;;;;;;;;;;5034237;28;20198;-79
2020/12/08 04:24:00;;;;;;;20.63;11.87;;;;;;;;;;5034708;28;20192;-79
2020/12/08 04:26:26;;;;;;;13.60;8.67;;;;;;;;;;5034443;28;20176;-79
2020/12/08 04:28:51;;;;;;;20.60;10.83;;;;;;;;;;5034552;28;20199;-79
2020/12/08 04:31:17;;;;;;;15.00;9.63;;;;;;;;;;5033483;28;20172;-79
2020/12/08 04:33:43;;;;;;;12.20;8.37;;;;;;;;;;5034296;28;20173;-79
2020/12/08 04:36:12;;;;;;;15.77;9.57;;;;;;;;;;5034333;28;20174;-79
2020/12/08 04:38:38;;;;;;;13.47;9.73;;;;;;;;;;5034449;28;20171;-79
2020/12/08 04:41:03;;;;;;;16.10;8.83;;;;;;;;;;5034097;28;20176;-79
2020/12/08 04:43:29;;;;;;;20.27;12.73;;;;;;;;;;5034557;28;20201;-79
2020/12/08 04:45:54;;;;;;;11.67;8.33;;;;;;;;;;5034933;28;20250;-79
2020/12/08 04:48:19;;;;;;;13.23;8.50;;;;;;;;;;5034805;28;20173;-79
2020/12/08 04:50:45;;;;;;;17.40;12.87;;;;;;;;;;5034614;28;20168;-79
2020/12/08 04:53:10;;;;;;;28.70;16.93;;;;;;;;;;5034171;28;20184;-79
2020/12/08 04:55:35;;;;;;;12.57;7.83;;;;;;;;;;5034381;28;20187;-79
2020/12/08 04:58:01;;;;;;;15.60;9.67;;;;;;;;;;5034865;28;20278;-79
2020/12/08 05:00:27;;;;;;;27.53;15.87;;;;;;;;;;5034914;28;20527;-79
2020/12/08 05:02:53;;;;;;;14.60;10.47;;;;;;;;;;5034062;28;20196;-79
2020/12/08 05:05:19;;;;;;;19.20;13.57;;;;;;;;;;5034223;28;20192;-79
2020/12/08 05:07:45;;;;;;;24.77;17.10;;;;;;;;;;5034413;28;20172;-79
2020/12/08 05:10:11;;;;;;;26.33;14.30;;;;;;;;;;5033876;28;20187;-79
2020/12/08 05:12:36;;;;;;;22.77;14.20;;;;;;;;;;5033550;28;20626;-79
2020/12/08 05:15:02;;;;;;;23.27;13.83;;;;;;;;;;5033554;28;20179;-79
2020/12/08 05:17:28;;;;;;;12.17;8.47;;;;;;;;;;5034077;28;20211;-79
2020/12/08 05:20:00;;;;;;;15.13;9.17;;;;;;;;;;5033436;28;20615;-79
2020/12/08 05:22:26;;;;;;;13.17;10.40;;;;;;;;;;5033623;28;20215;-79
2020/12/08 05:24:51;;;;;;;133.33;47.03;;;;;;;;;;5033691;28;20177;-79
2020/12/08 05:27:18;;;;;;;31.10;16.63;;;;;;;;;;5033593;28;20201;-79
2020/12/08 05:29:44;;;;;;;13.53;8.20;;;;;;;;;;5033666;28;20176;-79
2020/12/08 05:32:25;;;;;;;12.87;8.40;;;;;;;;;;5033955;28;20183;-79
2020/12/08 05:34:54;;;;;;;14.10;8.43;;;;;;;;;;5033825;28;20200;-79
2020/12/08 05:37:19;;;;;;;19.13;11.40;;;;;;;;;;5033618;28;20168;-79
2020/12/08 05:39:45;;;;;;;13.67;8.67;;;;;;;;;;5033641;28;20175;-78
2020/12/08 05:42:15;;;;;;;18.60;11.23;;;;;;;;;;5036252;28;20290;-78
2020/12/08 05:44:42;;;;;;;70.97;31.10;;;;;;;;;;5037844;28;20172;-78
2020/12/08 05:47:07;;;;;;;20.27;11.23;;;;;;;;;;5037481;28;20268;-78
2020/12/08 05:49:34;;;;;;;12.43;8.73;;;;;;;;;;5038263;28;20187;-79
2020/12/08 05:52:00;;;;;;;19.40;12.20;;;;;;;;;;5037708;28;20208;-79
2020/12/08 05:54:25;;;;;;;31.80;21.87;;;;;;;;;;5037569;28;20196;-79
2020/12/08 05:56:50;;;;;;;29.80;13.93;;;;;;;;;;5037057;28;20172;-80
2020/12/08 05:59:28;;;;;;;12.10;9.43;;;;;;;;;;5038147;28;20164;-79
2020/12/08 06:01:54;;;;;;;20.37;12.17;;;;;;;;;;5037189;28;20587;-79
2020/12/08 06:04:19;;;;;;;63.47;27.30;;;;;;;;;;5036993;28;20204;-79
2020/12/08 06:06:47;;;;;;;76.83;33.30;;;;;;;;;;5036815;28;20207;-79
2020/12/08 06:09:23;;;;;;;19.43;11.47;;;;;;;;;;5036889;28;20686;-79
2020/12/08 06:11:48;;;;;;;11.43;8.63;;;;;;;;;;5037304;28;20172;-79
2020/12/08 06:14:13;;;;;;;14.10;9.53;;;;;;;;;;5037011;28;20188;-79
2020/12/08 06:16:39;;;;;;;17.83;10.73;;;;;;;;;;5036714;28;20271;-79
2020/12/08 06:19:04;;;;;;;11.17;7.60;;;;;;;;;;5037194;28;20160;-79
2020/12/08 06:21:29;;;;;;;12.10;8.13;;;;;;;;;;5037163;28;20173;-79
2020/12/08 06:23:58;;;;;;;16.70;12.17;;;;;;;;;;5036601;28;20204;-79
2020/12/08 06:26:24;;;;;;;64.30;26.40;;;;;;;;;;5037312;28;20338;-79
2020/12/08 06:28:50;;;;;;;18.53;11.30;;;;;;;;;;5036488;28;20220;-79
2020/12/08 06:31:15;;;;;;;25.40;13.77;;;;;;;;;;5036477;28;20200;-79
2020/12/08 06:33:44;;;;;;;23.27;10.60;;;;;;;;;;5036706;28;20203;-79
2020/12/08 06:36:10;;;;;;;14.30;9.10;;;;;;;;;;5036270;28;20172;-79
2020/12/08 06:38:35;;;;;;;14.00;9.23;;;;;;;;;;5036848;28;20168;-79
2020/12/08 06:41:00;;;;;;;12.03;8.47;;;;;;;;;;5036392;28;20186;-79
2020/12/08 06:43:26;;;;;;;12.20;8.30;;;;;;;;;;5036708;28;20224;-79
2020/12/08 06:45:51;;;;;;;12.30;8.83;;;;;;;;;;5036298;28;20294;-79
2020/12/08 06:48:21;;;;;;;13.37;8.73;;;;;;;;;;5037028;28;20507;-79
2020/12/08 06:50:47;;;;;;;73.20;30.13;;;;;;;;;;5036423;28;20176;-79
2020/12/08 06:53:13;;;;;;;24.57;13.80;;;;;;;;;;5035224;28;20517;-80
2020/12/08 06:55:44;;;;;;;12.90;8.27;;;;;;;;;;5035843;28;20171;-79
2020/12/08 06:58:09;;;;;;;15.17;11.77;;;;;;;;;;5032116;28;20232;-79
2020/12/08 07:00:35;;;;;;;13.73;9.77;;;;;;;;;;5035454;28;20203;-80
2020/12/08 07:03:01;;;;;;;14.20;9.17;;;;;;;;;;5035432;28;20185;-79
2020/12/08 07:05:30;;;;;;;23.90;12.93;;;;;;;;;;5034466;28;20552;-80
2020/12/08 07:08:03;;;;;;;56.77;29.47;;;;;;;;;;5035655;28;20175;-79
2020/12/08 07:10:28;;;;;;;12.73;8.40;;;;;;;;;;5035567;28;20218;-79
2020/12/08 07:12:54;;;;;;;8.33;6.93;;;;;;;;;;5035718;28;20623;-79
2020/12/08 07:15:19;;;;;;;9.20;7.17;;;;;;;;;;5036242;28;20184;-79
2020/12/08 07:17:52;;;;;;;12.10;8.17;;;;;;;;;;5035698;28;20164;-79
2020/12/08 07:20:17;;;;;;;10.53;7.07;;;;;;;;;;5036293;28;20156;-79
2020/12/08 07:22:46;;;;;;;11.77;8.17;;;;;;;;;;5033840;28;20241;-80
2020/12/08 07:25:12;;;;;;;18.77;11.57;;;;;;;;;;5035121;28;20161;-79
2020/12/08 07:27:42;;;;;;;61.00;29.60;;;;;;;;;;5035261;28;20266;-79
2020/12/08 07:30:07;;;;;;;38.00;21.37;;;;;;;;;;5035159;28;20500;-80
2020/12/08 07:32:33;;;;;;;19.90;12.73;;;;;;;;;;5035284;28;20315;-80
2020/12/08 07:34:58;;;;;;;14.67;10.27;;;;;;;;;;5035409;28;20161;-80
2020/12/08 07:37:23;;;;;;;19.47;10.70;;;;;;;;;;5035313;28;20175;-80
2020/12/08 07:39:51;;;;;;;20.17;12.00;;;;;;;;;;5035083;28;20258;-79
2020/12/08 07:42:17;;;;;;;18.13;12.73;;;;;;;;;;5035098;28;20195;-79
2020/12/08 07:44:53;;;;;;;37.00;21.40;;;;;;;;;;5035211;28;20177;-79
2020/12/08 07:47:18;;;;;;;13.97;9.77;;;;;;;;;;5035695;28;20168;-79
2020/12/08 07:49:43;;;;;;;17.33;10.77;;;;;;;;;;5034743;28;20532;-79
2020/12/08 07:52:09;;;;;;;11.80;9.57;;;;;;;;;;5034723;28;20627;-79
2020/12/08 07:54:34;;;;;;;20.73;13.00;;;;;;;;;;5035273;28;20177;-79
2020/12/08 07:56:59;;;;;;;15.17;10.43;;;;;;;;;;5035082;28;20182;-79
2020/12/08 07:59:25;;;;;;;20.27;13.87;;;;;;;;;;5031666;28;20176;-79
2020/12/08 08:01:50;;;;;;;16.47;12.70;;;;;;;;;;5034291;28;20187;-79
2020/12/08 08:04:18;;;;;;;23.90;16.07;;;;;;;;;;5034455;28;20181;-79
2020/12/08 08:06:44;;;;;;;17.97;12.47;;;;;;;;;;5034422;28;20176;-79
2020/12/08 08:09:13;;;;;;;17.30;11.63;;;;;;;;;;5034650;28;20180;-80
2020/12/08 08:11:38;;;;;;;22.23;14.33;;;;;;;;;;5033342;28;20169;-80
2020/12/08 08:14:04;;;;;;;19.30;13.83;;;;;;;;;;5032882;28;20177;-80
2020/12/08 08:16:30;;;;;;;15.83;12.00;;;;;;;;;;5032888;28;20515;-80
2020/12/08 08:18:55;;;;;;;17.03;11.77;;;;;;;;;;5032513;28;20243;-81
2020/12/08 08:21:21;;;;;;;20.83;13.30;;;;;;;;;;5032773;28;20172;-80
2020/12/08 08:23:46;;;;;;;21.07;14.80;;;;;;;;;;5032387;28;20200;-80
2020/12/08 08:26:14;;;;;;;18.17;13.73;;;;;;;;;;5028471;28;20192;-81
2020/12/08 08:28:39;;;;;;;44.60;26.17;;;;;;;;;;5032616;28;20560;-80
2020/12/08 08:31:04;;;;;;;16.70;10.50;;;;;;;;;;5030760;28;20172;-81
2020/12/08 08:33:30;;;;;;;26.57;13.17;;;;;;;;;;5029502;28;20172;-80
2020/12/08 08:35:57;;;;;;;26.40;15.73;;;;;;;;;;5024108;28;20181;-79
2020/12/08 08:38:26;;;;;;;22.27;13.00;;;;;;;;;;5020817;28;20255;-80
2020/12/08 08:40:52;;;;;;;19.23;12.63;;;;;;;;;;5022589;28;20267;-79
2020/12/08 08:43:17;;;;;;;16.90;11.27;;;;;;;;;;5021561;28;20208;-80
2020/12/08 08:45:43;;;;;;;24.77;16.43;;;;;;;;;;5023059;28;20200;-82
2020/12/08 08:48:08;;;;;;;18.43;12.87;;;;;;;;;;5025212;28;20215;-80
2020/12/08 08:50:33;;;;;;;20.20;12.63;;;;;;;;;;5029417;28;20205;-80
2020/12/08 08:52:59;;;;;;;22.27;14.37;;;;;;;;;;5028548;28;20188;-81
2020/12/08 08:55:24;;;;;;;37.63;19.60;;;;;;;;;;5029938;28;20211;-82
2020/12/08 08:57:50;;;;;;;22.53;15.63;;;;;;;;;;5028478;28;20710;-81
2020/12/08 09:00:15;;;;;;;23.73;14.10;;;;;;;;;;5024425;28;20187;-80
2020/12/08 09:02:40;;;;;;;21.83;14.03;;;;;;;;;;5024771;28;20200;-80
2020/12/08 09:05:06;;;;;;;27.27;16.27;;;;;;;;;;5025543;28;20191;-81
2020/12/08 09:07:31;;;;;;;20.77;13.37;;;;;;;;;;5026231;28;20287;-80
2020/12/08 09:09:57;;;;;;;19.20;11.60;;;;;;;;;;5020441;28;20177;-81
2020/12/08 09:12:24;;;;;;;17.10;11.47;;;;;;;;;;5020762;28;20172;-80
2020/12/08 09:14:52;;;;;;;18.20;12.90;;;;;;;;;;5022509;28;20311;-80
2020/12/08 09:17:17;;;;;;;19.23;12.07;;;;;;;;;;5020566;28;20524;-80
2020/12/08 09:19:43;;;;;;;17.27;12.33;;;;;;;;;;5020798;28;20169;-80
2020/12/08 09:22:08;;;;;;;21.70;13.83;;;;;;;;;;5025651;28;20200;-80
2020/12/08 09:24:34;;;;;;;22.87;15.40;;;;;;;;;;5031237;28;20184;-80
2020/12/08 09:26:59;;;;;;;31.37;19.77;;;;;;;;;;5023159;28;20171;-80
2020/12/08 09:29:25;;;;;;;20.03;13.37;;;;;;;;;;5022427;28;20172;-79
2020/12/08 09:31:55;;;;;;;26.90;16.43;;;;;;;;;;5020876;28;20181;-80
2020/12/08 09:34:20;;;;;;;33.53;20.30;;;;;;;;;;5020462;28;20184;-80
2020/12/08 09:36:47;;;;;;;18.80;13.53;;;;;;;;;;5022686;28;20172;-79
2020/12/08 09:39:14;;;;;;;15.67;11.43;;;;;;;;;;5020984;28;20177;-80
2020/12/08 09:41:39;;;;;;;22.90;15.50;;;;;;;;;;5020416;28;20259;-79
2020/12/08 09:44:08;;;;;;;23.70;14.23;;;;;;;;;;5030816;28;20304;-79
2020/12/08 09:46:34;;;;;;;18.33;12.83;;;;;;;;;;5031516;28;20701;-79
2020/12/08 09:48:59;;;;;;;17.90;11.40;;;;;;;;;;5026318;28;20172;-79
2020/12/08 09:51:24;;;;;;;27.30;17.53;;;;;;;;;;5031415;28;20239;-80
2020/12/08 09:53:50;;;;;;;23.50;14.83;;;;;;;;;;5024896;28;20196;-79
2020/12/08 09:56:15;;;;;;;30.30;19.13;;;;;;;;;;5031659;28;20168;-80
2020/12/08 09:58:41;;;;;;;31.50;19.97;;;;;;;;;;5027683;28;20723;-80
2020/12/08 10:01:06;;;;;;;36.03;24.30;;;;;;;;;;5026300;28;20180;-80
2020/12/08 10:03:32;;;;;;;26.17;17.73;;;;;;;;;;5029392;28;20208;-80
2020/12/08 10:05:57;;;;;;;27.70;17.53;;;;;;;;;;5030468;28;20267;-80
2020/12/08 10:08:22;;;;;;;23.17;16.83;;;;;;;;;;5031286;28;20199;-79
2020/12/08 10:10:48;;;;;;;24.10;16.07;;;;;;;;;;5029397;28;20275;-80
2020/12/08 10:13:13;;;;;;;21.80;13.83;;;;;;;;;;5030942;28;20676;-80
2020/12/08 10:15:39;;;;;;;23.77;15.23;;;;;;;;;;5031237;28;20176;-80
2020/12/08 10:18:04;;;;;;;24.23;16.63;;;;;;;;;;5031338;28;20176;-79
2020/12/08 10:20:30;;;;;;;22.30;15.70;;;;;;;;;;5031242;28;20176;-80
2020/12/08 10:22:55;;;;;;;32.13;21.13;;;;;;;;;;5031066;28;20200;-80
2020/12/08 10:25:20;;;;;;;38.37;24.87;;;;;;;;;;5031099;28;20168;-79
2020/12/08 10:27:46;;;;;;;42.47;26.10;;;;;;;;;;5030234;28;20204;-80
2020/12/08 10:30:11;;;;;;;29.20;19.53;;;;;;;;;;5028898;28;20188;-80
2020/12/08 10:32:36;;;;;;;34.13;22.40;;;;;;;;;;5029311;28;20191;-80
2020/12/08 10:35:02;;;;;;;23.50;15.93;;;;;;;;;;5027202;28;20242;-80
2020/12/08 10:37:27;;;;;;;37.07;22.50;;;;;;;;;;5030382;28;20199;-80
2020/12/08 10:39:53;;;;;;;18.40;10.80;;;;;;;;;;5030725;28;20530;-80
2020/12/08 10:42:18;;;;;;;24.77;16.27;;;;;;;;;;5032751;28;20281;-80
2020/12/08 10:44:43;;;;;;;23.43;14.20;;;;;;;;;;5031995;28;20212;-79
2020/12/08 10:47:09;;;;;;;24.67;18.20;;;;;;;;;;5030005;28;20230;-80
2020/12/08 10:49:34;;;;;;;23.80;16.63;;;;;;;;;;5015372;28;20168;-79
2020/12/08 10:51:59;;;;;;;23.13;15.53;;;;;;;;;;5029313;28;20531;-81
2020/12/08 10:54:25;;;;;;;22.87;15.33;;;;;;;;;;5032178;28;20183;-79
2020/12/08 10:56:51;;;;;;;24.70;17.67;;;;;;;;;;5034234;28;21031;-80
2020/12/08 10:59:16;;;;;;;21.53;14.47;;;;;;;;;;5034394;28;20172;-79
2020/12/08 11:01:42;;;;;;;25.20;17.03;;;;;;;;;;5032765;28;20209;-79
2020/12/08 11:04:07;;;;;;;31.83;18.73;;;;;;;;;;5032286;28;20265;-80
2020/12/08 11:06:32;;;;;;;22.37;16.10;;;;;;;;;;5034240;28;20501;-81
2020/12/08 11:08:58;;;;;;;22.33;14.93;;;;;;;;;;5034187;28;20169;-80
2020/12/08 11:11:24;;;;;;;26.07;16.37;;;;;;;;;;5034192;28;20211;-80
2020/12/08 11:13:50;;;;;;;23.17;17.67;;;;;;;;;;5032258;28;20180;-80
2020/12/08 11:16:15;;;;;;;25.10;17.33;;;;;;;;;;5025642;28;20188;-81
2020/12/08 11:18:41;;;;;;;27.03;15.50;;;;;;;;;;5033864;28;20177;-80
2020/12/08 11:21:06;;;;;;;26.70;18.10;;;;;;;;;;5032117;28;20205;-80
2020/12/08 11:23:32;;;;;;;23.70;16.23;;;;;;;;;;5030026;28;20219;-80
2020/12/08 11:25:57;;;;;;;39.30;23.47;;;;;;;;;;5029298;28;20185;-80
2020/12/08 11:28:23;;;;;;;29.63;19.23;;;;;;;;;;5031824;28;20247;-81
2020/12/08 11:30:48;;;;;;;28.40;19.63;;;;;;;;;;5031805;28;20543;-80
2020/12/08 11:33:13;;;;;;;25.77;18.63;;;;;;;;;;5033348;28;20192;-80
2020/12/08 11:35:39;;;;;;;30.63;18.90;;;;;;;;;;5033413;28;20173;-80
2020/12/08 11:38:05;;;;;;;27.97;17.27;;;;;;;;;;5033833;28;20172;-80
2020/12/08 11:40:30;;;;;;;27.67;17.10;;;;;;;;;;5033143;28;20205;-80
2020/12/08 11:42:55;;;;;;;27.07;19.17;;;;;;;;;;5033113;28;20193;-80
2020/12/08 11:45:21;;;;;;;24.43;16.47;;;;;;;;;;5033444;28;20529;-80
2020/12/08 11:47:47;;;;;;;20.97;13.60;;;;;;;;;;5033429;28;20206;-79
2020/12/08 11:50:12;;;;;;;26.17;16.07;;;;;;;;;;5033566;28;20912;-80
2020/12/08 11:52:37;;;;;;;26.53;16.13;;;;;;;;;;5031851;28;20180;-80
2020/12/08 11:55:06;;;;;;;24.97;16.63;;;;;;;;;;5029470;28;20184;-80
2020/12/08 11:57:31;;;;;;;36.47;23.17;;;;;;;;;;5029223;28;20278;-80
2020/12/08 11:59:56;;;;;;;27.67;18.17;;;;;;;;;;5031387;28;20177;-80
2020/12/08 12:02:22;;;;;;;33.57;20.37;;;;;;;;;;5030127;28;20196;-83
2020/12/08 12:04:47;;;;;;;27.93;17.33;;;;;;;;;;5028685;28;20180;-81
2020/12/08 12:07:13;;;;;;;24.07;15.47;;;;;;;;;;5032996;28;20579;-80
2020/12/08 12:09:38;;;;;;;29.07;17.97;;;;;;;;;;5033047;28;20222;-80
2020/12/08 12:12:03;;;;;;;27.60;17.23;;;;;;;;;;5032878;28;20725;-80
2020/12/08 12:14:29;;;;;;;27.87;17.03;;;;;;;;;;5032482;28;20199;-80
2020/12/08 12:16:54;;;;;;;23.30;14.57;;;;;;;;;;5031621;28;20559;-81
2020/12/08 12:19:19;;;;;;;20.37;12.57;;;;;;;;;;5031724;28;20172;-80
2020/12/08 12:21:45;;;;;;;27.03;16.87;;;;;;;;;;5031656;28;20515;-80
2020/12/08 12:24:10;;;;;;;36.10;23.07;;;;;;;;;;5030535;28;20205;-80
2020/12/08 12:26:35;;;;;;;27.60;15.53;;;;;;;;;;5030502;28;20208;-81
2020/12/08 12:29:01;;;;;;;32.00;21.60;;;;;;;;;;5030426;28;20239;-79
2020/12/08 12:31:26;;;;;;;26.10;16.27;;;;;;;;;;5032140;28;20173;-80
2020/12/08 12:33:51;;;;;;;27.50;17.90;;;;;;;;;;5031355;28;20184;-80
2020/12/08 12:36:17;;;;;;;24.30;15.90;;;;;;;;;;5032323;28;20173;-80
2020/12/08 12:38:42;;;;;;;24.83;14.87;;;;;;;;;;5030608;28;20555;-80
2020/12/08 12:41:08;;;;;;;30.77;19.00;;;;;;;;;;5030952;28;20187;-80
2020/12/08 12:43:33;;;;;;;25.57;18.33;;;;;;;;;;5031032;28;20196;-80
2020/12/08 12:45:58;;;;;;;25.57;16.30;;;;;;;;;;5030100;28;20639;-80
2020/12/08 12:48:24;;;;;;;28.23;17.83;;;;;;;;;;5021169;28;20184;-81
2020/12/08 12:50:49;;;;;;;33.93;19.23;;;;;;;;;;5024622;28;20500;-81
2020/12/08 12:53:14;;;;;;;26.77;17.07;;;;;;;;;;5027732;28;20199;-80
2020/12/08 12:55:40;;;;;;;29.77;19.27;;;;;;;;;;5027904;28;20172;-80
2020/12/08 12:58:05;;;;;;;29.17;17.90;;;;;;;;;;5025811;28;20232;-80
2020/12/08 13:00:31;;;;;;;29.17;17.80;;;;;;;;;;5024129;28;20267;-80
2020/12/08 13:02:56;;;;;;;25.00;16.77;;;;;;;;;;5028339;28;20204;-81
2020/12/08 13:05:22;;;;;;;35.80;22.10;;;;;;;;;;5032123;28;20633;-80
2020/12/08 13:07:47;;;;;;;38.27;22.33;;;;;;;;;;5027310;28;20226;-81
2020/12/08 13:10:13;;;;;;;28.27;17.80;;;;;;;;;;5029445;28;20180;-80
2020/12/08 13:12:38;;;;;;;35.47;20.93;;;;;;;;;;5022028;28;20161;-80
2020/12/08 13:15:03;;;;;;;29.87;19.20;;;;;;;;;;5030001;28;20203;-81
2020/12/08 13:17:29;;;;;;;28.63;18.30;;;;;;;;;;5032053;28;20160;-80
2020/12/08 13:19:54;;;;;;;28.10;16.57;;;;;;;;;;5031713;28;20356;-80
2020/12/08 13:22:20;;;;;;;28.97;17.30;;;;;;;;;;5028660;28;20204;-81
2020/12/08 13:24:45;;;;;;;28.80;18.07;;;;;;;;;;5027509;28;20181;-80
2020/12/08 13:27:12;;;;;;;20.13;11.50;;;;;;;;;;5030275;28;20167;-81
2020/12/08 13:29:37;;;;;;;29.47;19.33;;;;;;;;;;5027143;28;20180;-80
2020/12/08 13:32:03;;;;;;;26.93;17.33;;;;;;;;;;5028837;28;20722;-80
2020/12/08 13:34:28;;;;;;;35.10;21.23;;;;;;;;;;5030400;28;20187;-80
2020/12/08 13:36:54;;;;;;;31.63;20.83;;;;;;;;;;5030021;28;20231;-80
2020/12/08 13:39:19;;;;;;;35.03;20.60;;;;;;;;;;5032232;28;20584;-80
2020/12/08 13:41:45;;;;;;;30.73;19.67;;;;;;;;;;5018222;28;20179;-80
2020/12/08 13:44:10;;;;;;;30.67;17.53;;;;;;;;;;5031682;28;20271;-80
2020/12/08 13:46:36;;;;;;;29.10;17.80;;;;;;;;;;5031862;28;20169;-80
2020/12/08 13:49:01;;;;;;;35.33;22.07;;;;;;;;;;5032030;28;20176;-80
2020/12/08 13:51:26;;;;;;;35.13;21.67;;;;;;;;;;5031572;28;20524;-79
2020/12/08 13:53:52;;;;;;;42.43;23.57;;;;;;;;;;5031291;28;20172;-79
2020/12/08 13:56:21;;;;;;;34.30;22.13;;;;;;;;;;5031359;28;20165;-80
2020/12/08 13:58:47;;;;;;;32.17;19.80;;;;;;;;;;5031598;28;20720;-80
2020/12/08 14:01:12;;;;;;;29.47;20.97;;;;;;;;;;5031698;28;20185;-79
2020/12/08 14:03:38;;;;;;;35.90;22.33;;;;;;;;;;5034582;28;20211;-80
2020/12/08 14:06:03;;;;;;;30.53;19.93;;;;;;;;;;5035449;28;20230;-80
2020/12/08 14:08:29;;;;;;;43.10;25.07;;;;;;;;;;5035166;28;20191;-80
2020/12/08 14:10:54;;;;;;;32.43;21.13;;;;;;;;;;5035369;28;20172;-80